sensor_id;sensor_type;location;lat;lon;timestamp;pressure;altitude;pressure_sealevel;temperature;humidity
56928;BME280;60850;52.502;13.426;2023-12-14T00:01:12;100168.97;;;3.79;100.00
56928;BME280;60850;52.502;13.426;2023-12-14T00:03:39;100183.03;;;3.79;100.00
56928;BME280;60850;52.502;13.426;2023-12-14T00:06:08;100190.19;;;3.67;100.00
56928;BME280;60850;52.502;13.426;2023-12-14T00:08:38;100187.53;;;3.68;100.00
56928;BME280;60850;52.502;13.426;2023-12-14T00:11:07;100191.00;;;3.75;100.00
56928;BME280;60850;52.502;13.426;2023-12-14T00:13:35;100191.00;;;3.70;100.00
56928;BME280;60850;52.502;13.426;2023-12-14T00:16:03;100193.72;;;3.61;100.00
56928;BME280;60850;52.502;13.426;2023-12-14T00:18:31;100204.22;;;3.69;100.00
56928;BME280;60850;52.502;13.426;2023-12-14T00:20:58;100199.88;;;3.60;100.00
56928;BME280;60850;52.502;13.426;2023-12-14T00:23:27;100220.97;;;3.60;100.00
56928;BME280;60850;52.502;13.426;2023-12-14T00:25:59;100220.16;;;3.49;100.00
56928;BME280;60850;52.502;13.426;2023-12-14T00:28:27;100223.66;;;3.49;100.00
56928;BME280;60850;52.502;13.426;2023-12-14T00:30:55;100217.53;;;3.44;100.00
56928;BME280;60850;52.502;13.426;2023-12-14T00:33:22;100221.91;;;3.48;100.00
56928;BME280;60850;52.502;13.426;2023-12-14T00:35:50;100228.06;;;3.49;100.00
56928;BME280;60850;52.502;13.426;2023-12-14T00:38:17;100233.38;;;3.46;100.00
56928;BME280;60850;52.502;13.426;2023-12-14T00:40:44;100237.72;;;3.48;100.00
56928;BME280;60850;52.502;13.426;2023-12-14T00:43:11;100238.56;;;3.60;100.00
56928;BME280;60850;52.502;13.426;2023-12-14T00:45:40;100246.47;;;3.60;100.00
56928;BME280;60850;52.502;13.426;2023-12-14T00:48:07;100235.00;;;3.62;100.00
56928;BME280;60850;52.502;13.426;2023-12-14T00:50:34;100246.53;;;3.43;100.00
56928;BME280;60850;52.502;13.426;2023-12-14T00:53:01;100246.53;;;3.46;100.00
56928;BME280;60850;52.502;13.426;2023-12-14T00:55:28;100250.00;;;3.49;100.00
56928;BME280;60850;52.502;13.426;2023-12-14T00:57:55;100257.97;;;3.37;100.00
56928;BME280;60850;52.502;13.426;2023-12-14T01:00:23;100260.66;;;3.33;100.00
56928;BME280;60850;52.502;13.426;2023-12-14T01:02:51;100265.00;;;3.40;100.00
56928;BME280;60850;52.502;13.426;2023-12-14T01:05:18;100275.53;;;3.40;100.00
56928;BME280;60850;52.502;13.426;2023-12-14T01:07:45;100272.91;;;3.35;100.00
56928;BME280;60850;52.502;13.426;2023-12-14T01:10:13;100278.25;;;3.24;100.00
56928;BME280;60850;52.502;13.426;2023-12-14T01:12:39;100284.44;;;3.11;100.00
56928;BME280;60850;52.502;13.426;2023-12-14T01:15:07;100287.06;;;3.13;100.00
56928;BME280;60850;52.502;13.426;2023-12-14T01:17:34;100287.09;;;3.11;100.00
56928;BME280;60850;52.502;13.426;2023-12-14T01:20:06;100295.81;;;3.16;100.00
56928;BME280;60850;52.502;13.426;2023-12-14T01:22:33;100297.59;;;3.19;100.00
56928;BME280;60850;52.502;13.426;2023-12-14T01:25:01;100312.50;;;3.17;100.00
56928;BME280;60850;52.502;13.426;2023-12-14T01:27:27;100303.75;;;3.12;100.00
56928;BME280;60850;52.502;13.426;2023-12-14T01:29:55;100319.53;;;3.16;100.00
56928;BME280;60850;52.502;13.426;2023-12-14T01:32:21;100311.63;;;3.21;100.00
56928;BME280;60850;52.502;13.426;2023-12-14T01:34:49;100315.16;;;3.18;100.00
56928;BME280;60850;52.502;13.426;2023-12-14T01:37:17;100323.94;;;3.10;100.00
56928;BME280;60850;52.502;13.426;2023-12-14T01:39:44;100322.16;;;3.19;100.00
56928;BME280;60850;52.502;13.426;2023-12-14T01:42:11;100321.28;;;3.22;100.00
56928;BME280;60850;52.502;13.426;2023-12-14T01:44:38;100328.34;;;3.12;100.00
56928;BME280;60850;52.502;13.426;2023-12-14T01:47:04;100323.06;;;3.03;100.00
56928;BME280;60850;52.502;13.426;2023-12-14T01:49:31;100338.88;;;3.01;100.00
56928;BME280;60850;52.502;13.426;2023-12-14T01:51:58;100334.53;;;2.97;100.00
56928;BME280;60850;52.502;13.426;2023-12-14T01:54:27;100334.56;;;2.84;100.00
56928;BME280;60850;52.502;13.426;2023-12-14T01:56:53;100338.06;;;2.84;100.00
56928;BME280;60850;52.502;13.426;2023-12-14T01:59:21;100344.19;;;2.88;100.00
56928;BME280;60850;52.502;13.426;2023-12-14T02:01:54;100342.44;;;2.81;100.00
56928;BME280;60850;52.502;13.426;2023-12-14T02:04:24;100352.13;;;2.69;100.00
56928;BME280;60850;52.502;13.426;2023-12-14T02:06:51;100353.88;;;2.77;100.00
56928;BME280;60850;52.502;13.426;2023-12-14T02:09:18;100360.88;;;2.82;100.00
56928;BME280;60850;52.502;13.426;2023-12-14T02:11:46;100357.34;;;2.88;100.00
56928;BME280;60850;52.502;13.426;2023-12-14T02:14:13;100357.34;;;2.80;100.00
56928;BME280;60850;52.502;13.426;2023-12-14T02:16:40;100361.72;;;2.89;100.00
56928;BME280;60850;52.502;13.426;2023-12-14T02:19:07;100357.34;;;2.74;100.00
56928;BME280;60850;52.502;13.426;2023-12-14T02:21:34;100361.75;;;2.83;100.00
56928;BME280;60850;52.502;13.426;2023-12-14T02:24:03;100360.88;;;2.82;100.00
56928;BME280;60850;52.502;13.426;2023-12-14T02:26:30;100364.38;;;2.72;100.00
56928;BME280;60850;52.502;13.426;2023-12-14T02:28:57;100367.00;;;2.67;100.00
56928;BME280;60850;52.502;13.426;2023-12-14T02:31:24;100363.53;;;2.62;100.00
56928;BME280;60850;52.502;13.426;2023-12-14T02:33:51;100363.50;;;2.71;100.00
56928;BME280;60850;52.502;13.426;2023-12-14T02:36:18;100365.25;;;2.77;100.00
56928;BME280;60850;52.502;13.426;2023-12-14T02:38:45;100360.91;;;2.68;100.00
56928;BME280;60850;52.502;13.426;2023-12-14T02:41:13;100370.53;;;2.79;100.00
56928;BME280;60850;52.502;13.426;2023-12-14T02:43:41;100375.81;;;2.69;100.00
56928;BME280;60850;52.502;13.426;2023-12-14T02:46:08;100371.41;;;2.70;100.00
56928;BME280;60850;52.502;13.426;2023-12-14T02:48:37;100377.56;;;2.61;100.00
56928;BME280;60850;52.502;13.426;2023-12-14T02:51:04;100379.31;;;2.71;100.00
56928;BME280;60850;52.502;13.426;2023-12-14T02:53:31;100384.56;;;2.62;100.00
56928;BME280;60850;52.502;13.426;2023-12-14T02:56:01;100381.94;;;2.68;100.00
56928;BME280;60850;52.502;13.426;2023-12-14T02:58:29;100380.19;;;2.83;100.00
56928;BME280;60850;52.502;13.426;2023-12-14T03:00:56;100384.53;;;2.81;100.00
56928;BME280;60850;52.502;13.426;2023-12-14T03:03:23;100388.03;;;2.89;100.00
56928;BME280;60850;52.502;13.426;2023-12-14T03:05:50;100393.31;;;2.95;100.00
56928;BME280;60850;52.502;13.426;2023-12-14T03:08:17;100395.97;;;2.83;100.00
56928;BME280;60850;52.502;13.426;2023-12-14T03:10:44;100400.34;;;2.73;100.00
56928;BME280;60850;52.502;13.426;2023-12-14T03:13:11;100403.84;;;2.89;100.00
56928;BME280;60850;52.502;13.426;2023-12-14T03:15:42;100406.50;;;2.92;100.00
56928;BME280;60850;52.502;13.426;2023-12-14T03:18:11;100409.16;;;2.75;100.00
56928;BME280;60850;52.502;13.426;2023-12-14T03:20:38;100418.78;;;2.82;100.00
56928;BME280;60850;52.502;13.426;2023-12-14T03:23:05;100423.16;;;2.79;100.00
56928;BME280;60850;52.502;13.426;2023-12-14T03:25:33;100422.28;;;2.73;100.00
56928;BME280;60850;52.502;13.426;2023-12-14T03:28:00;100430.16;;;2.95;100.00
56928;BME280;60850;52.502;13.426;2023-12-14T03:30:27;100426.66;;;2.74;100.00
56928;BME280;60850;52.502;13.426;2023-12-14T03:32:56;100431.06;;;2.85;100.00
56928;BME280;60850;52.502;13.426;2023-12-14T03:35:23;100426.66;;;2.74;100.00
56928;BME280;60850;52.502;13.426;2023-12-14T03:37:50;100435.44;;;2.73;100.00
56928;BME280;60850;52.502;13.426;2023-12-14T03:40:17;100445.13;;;2.68;100.00
56928;BME280;60850;52.502;13.426;2023-12-14T03:42:44;100439.84;;;2.73;100.00
56928;BME280;60850;52.502;13.426;2023-12-14T03:45:11;100446.84;;;2.65;100.00
56928;BME280;60850;52.502;13.426;2023-12-14T03:47:37;100445.09;;;2.85;100.00
56928;BME280;60850;52.502;13.426;2023-12-14T03:50:07;100447.75;;;2.85;100.00
56928;BME280;60850;52.502;13.426;2023-12-14T03:52:35;100462.66;;;2.71;100.00
56928;BME280;60850;52.502;13.426;2023-12-14T03:55:02;100462.66;;;2.80;100.00
56928;BME280;60850;52.502;13.426;2023-12-14T03:57:29;100467.06;;;2.75;100.00
56928;BME280;60850;52.502;13.426;2023-12-14T03:59:56;100460.00;;;2.80;100.00
56928;BME280;60850;52.502;13.426;2023-12-14T04:02:23;100469.69;;;2.77;100.00
56928;BME280;60850;52.502;13.426;2023-12-14T04:04:50;100481.06;;;2.69;100.00
56928;BME280;60850;52.502;13.426;2023-12-14T04:07:18;100494.25;;;2.77;100.00
56928;BME280;60850;52.502;13.426;2023-12-14T04:09:45;100484.59;;;2.78;100.00
56928;BME280;60850;52.502;13.426;2023-12-14T04:12:12;100481.94;;;2.67;100.00
56928;BME280;60850;52.502;13.426;2023-12-14T04:14:39;100490.72;;;2.72;100.00
56928;BME280;60850;52.502;13.426;2023-12-14T04:17:05;100488.09;;;2.70;100.00
56928;BME280;60850;52.502;13.426;2023-12-14T04:19:32;100488.97;;;2.69;100.00
56928;BME280;60850;52.502;13.426;2023-12-14T04:21:59;100488.13;;;2.75;100.00
56928;BME280;60850;52.502;13.426;2023-12-14T04:24:27;100496.00;;;2.75;100.00
56928;BME280;60850;52.502;13.426;2023-12-14T04:26:56;100500.38;;;2.65;100.00
56928;BME280;60850;52.502;13.426;2023-12-14T04:29:22;100497.75;;;2.78;100.00
56928;BME280;60850;52.502;13.426;2023-12-14T04:31:50;100512.69;;;2.91;100.00
56928;BME280;60850;52.502;13.426;2023-12-14T04:34:16;100517.06;;;2.92;100.00
56928;BME280;60850;52.502;13.426;2023-12-14T04:36:45;100507.44;;;3.06;100.00
56928;BME280;60850;52.502;13.426;2023-12-14T04:39:12;100516.19;;;3.02;100.00
56928;BME280;60850;52.502;13.426;2023-12-14T04:41:40;100518.84;;;2.91;100.00
56928;BME280;60850;52.502;13.426;2023-12-14T04:44:07;100517.94;;;2.88;100.00
56928;BME280;60850;52.502;13.426;2023-12-14T04:46:35;100513.56;;;2.85;100.00
56928;BME280;60850;52.502;13.426;2023-12-14T04:49:02;100524.06;;;2.73;100.00
56928;BME280;60850;52.502;13.426;2023-12-14T04:51:29;100520.59;;;2.91;100.00
56928;BME280;60850;52.502;13.426;2023-12-14T04:53:57;100524.97;;;2.90;100.00
56928;BME280;60850;52.502;13.426;2023-12-14T04:56:24;100534.63;;;2.94;100.00
56928;BME280;60850;52.502;13.426;2023-12-14T04:58:52;100532.00;;;2.99;100.00
56928;BME280;60850;52.502;13.426;2023-12-14T05:01:19;100533.75;;;2.85;100.00
56928;BME280;60850;52.502;13.426;2023-12-14T05:03:46;100546.91;;;2.88;100.00
56928;BME280;60850;52.502;13.426;2023-12-14T05:06:13;100544.28;;;2.98;100.00
56928;BME280;60850;52.502;13.426;2023-12-14T05:08:40;100545.16;;;2.93;100.00
56928;BME280;60850;52.502;13.426;2023-12-14T05:11:07;100548.69;;;2.99;100.00
56928;BME280;60850;52.502;13.426;2023-12-14T05:13:34;100555.69;;;3.02;100.00
56928;BME280;60850;52.502;13.426;2023-12-14T05:16:03;100561.84;;;3.02;100.00
56928;BME280;60850;52.502;13.426;2023-12-14T05:18:30;100563.59;;;2.96;100.00
56928;BME280;60850;52.502;13.426;2023-12-14T05:20:58;100572.34;;;2.89;100.00
56928;BME280;60850;52.502;13.426;2023-12-14T05:23:25;100575.84;;;2.88;100.00
56928;BME280;60850;52.502;13.426;2023-12-14T05:25:53;100583.75;;;2.88;100.00
56928;BME280;60850;52.502;13.426;2023-12-14T05:28:19;100596.94;;;2.94;100.00
56928;BME280;60850;52.502;13.426;2023-12-14T05:30:46;100597.81;;;2.96;100.00
56928;BME280;60850;52.502;13.426;2023-12-14T05:33:15;100603.06;;;2.96;100.00
56928;BME280;60850;52.502;13.426;2023-12-14T05:35:42;100606.63;;;2.98;100.00
56928;BME280;60850;52.502;13.426;2023-12-14T05:38:09;100611.88;;;2.98;100.00
56928;BME280;60850;52.502;13.426;2023-12-14T05:40:36;100611.03;;;3.23;100.00
56928;BME280;60850;52.502;13.426;2023-12-14T05:43:03;100618.03;;;3.06;100.00
56928;BME280;60850;52.502;13.426;2023-12-14T05:45:30;100618.03;;;3.06;100.00
56928;BME280;60850;52.502;13.426;2023-12-14T05:47:57;100632.09;;;3.11;100.00
56928;BME280;60850;52.502;13.426;2023-12-14T05:50:25;100632.97;;;3.07;100.00
56928;BME280;60850;52.502;13.426;2023-12-14T05:52:52;100633.81;;;2.91;100.00
56928;BME280;60850;52.502;13.426;2023-12-14T05:55:19;100643.47;;;2.99;100.00
56928;BME280;60850;52.502;13.426;2023-12-14T05:57:47;100647.00;;;2.97;100.00
56928;BME280;60850;52.502;13.426;2023-12-14T06:00:15;100646.09;;;2.95;100.00
56928;BME280;60850;52.502;13.426;2023-12-14T06:02:42;100651.34;;;2.86;100.00
56928;BME280;60850;52.502;13.426;2023-12-14T06:05:09;100647.84;;;2.90;100.00
56928;BME280;60850;52.502;13.426;2023-12-14T06:07:37;100655.81;;;3.14;100.00
56928;BME280;60850;52.502;13.426;2023-12-14T06:10:05;100653.16;;;3.05;100.00
56928;BME280;60850;52.502;13.426;2023-12-14T06:12:32;100647.91;;;3.23;100.00
56928;BME280;60850;52.502;13.426;2023-12-14T06:15:00;100655.81;;;3.14;100.00
56928;BME280;60850;52.502;13.426;2023-12-14T06:17:27;100662.81;;;3.08;100.00
56928;BME280;60850;52.502;13.426;2023-12-14T06:19:54;100672.44;;;2.96;100.00
56928;BME280;60850;52.502;13.426;2023-12-14T06:22:21;100681.22;;;3.03;100.00
56928;BME280;60850;52.502;13.426;2023-12-14T06:24:49;100670.72;;;3.05;100.00
56928;BME280;60850;52.502;13.426;2023-12-14T06:27:16;100676.84;;;2.97;100.00
56928;BME280;60850;52.502;13.426;2023-12-14T06:29:43;100677.75;;;3.04;100.00
56928;BME280;60850;52.502;13.426;2023-12-14T06:32:10;100681.31;;;3.32;100.00
56928;BME280;60850;52.502;13.426;2023-12-14T06:34:37;100684.81;;;3.26;100.00
56928;BME280;60850;52.502;13.426;2023-12-14T06:37:04;100677.81;;;3.33;100.00
56928;BME280;60850;52.502;13.426;2023-12-14T06:39:31;100682.13;;;3.16;100.00
56928;BME280;60850;52.502;13.426;2023-12-14T06:42:00;100680.41;;;3.21;100.00
56928;BME280;60850;52.502;13.426;2023-12-14T06:44:27;100690.94;;;3.12;100.00
56928;BME280;60850;52.502;13.426;2023-12-14T06:46:56;100697.03;;;3.00;100.00
56928;BME280;60850;52.502;13.426;2023-12-14T06:49:24;100702.28;;;3.03;100.00
56928;BME280;60850;52.502;13.426;2023-12-14T06:51:51;100704.91;;;2.95;100.00
56928;BME280;60850;52.502;13.426;2023-12-14T06:54:18;100717.19;;;2.92;100.00
56928;BME280;60850;52.502;13.426;2023-12-14T06:56:45;100715.47;;;3.08;100.00
56928;BME280;60850;52.502;13.426;2023-12-14T06:59:14;100716.38;;;3.05;100.00
56928;BME280;60850;52.502;13.426;2023-12-14T07:01:41;100718.09;;;3.03;100.00
56928;BME280;60850;52.502;13.426;2023-12-14T07:04:08;100728.59;;;2.91;100.00
56928;BME280;60850;52.502;13.426;2023-12-14T07:06:35;100733.88;;;2.92;100.00
56928;BME280;60850;52.502;13.426;2023-12-14T07:09:02;100734.75;;;2.91;100.00
56928;BME280;60850;52.502;13.426;2023-12-14T07:11:30;100739.09;;;2.86;100.00
56928;BME280;60850;52.502;13.426;2023-12-14T07:13:57;100749.63;;;2.88;100.00
56928;BME280;60850;52.502;13.426;2023-12-14T07:16:26;100754.91;;;2.88;100.00
56928;BME280;60850;52.502;13.426;2023-12-14T07:18:53;100763.66;;;2.84;100.00
56928;BME280;60850;52.502;13.426;2023-12-14T07:21:20;100767.19;;;2.86;100.00
56928;BME280;60850;52.502;13.426;2023-12-14T07:23:48;100777.75;;;2.92;100.00
56928;BME280;60850;52.502;13.426;2023-12-14T07:26:14;100774.25;;;2.91;100.00
56928;BME280;60850;52.502;13.426;2023-12-14T07:28:41;100784.81;;;2.99;100.00
56928;BME280;60850;52.502;13.426;2023-12-14T07:31:08;100786.78;;;3.66;100.00
56928;BME280;60850;52.502;13.426;2023-12-14T07:33:37;100793.88;;;3.93;100.00
56928;BME280;60850;52.502;13.426;2023-12-14T07:36:04;100799.97;;;3.64;100.00
56928;BME280;60850;52.502;13.426;2023-12-14T07:38:31;100808.84;;;3.89;100.00
56928;BME280;60850;52.502;13.426;2023-12-14T07:40:58;100806.19;;;3.81;100.00
56928;BME280;60850;52.502;13.426;2023-12-14T07:43:25;100812.28;;;3.65;100.00
56928;BME280;60850;52.502;13.426;2023-12-14T07:45:52;100816.78;;;4.13;100.00
56928;BME280;60850;52.502;13.426;2023-12-14T07:48:19;100818.47;;;3.76;100.00
56928;BME280;60850;52.502;13.426;2023-12-14T07:50:47;100814.03;;;3.65;100.00
56928;BME280;60850;52.502;13.426;2023-12-14T07:53:14;100817.63;;;3.83;100.00
56928;BME280;60850;52.502;13.426;2023-12-14T07:55:41;100824.69;;;4.03;100.00
56928;BME280;60850;52.502;13.426;2023-12-14T07:58:08;100824.72;;;4.24;100.00
56928;BME280;60850;52.502;13.426;2023-12-14T08:00:35;100829.09;;;4.33;100.00
56928;BME280;60850;52.502;13.426;2023-12-14T08:03:02;100824.69;;;4.50;100.00
56928;BME280;60850;52.502;13.426;2023-12-14T08:05:29;100832.63;;;4.59;100.00
56928;BME280;60850;52.502;13.426;2023-12-14T08:07:57;100844.06;;;4.63;100.00
56928;BME280;60850;52.502;13.426;2023-12-14T08:10:25;100842.28;;;4.63;100.00
56928;BME280;60850;52.502;13.426;2023-12-14T08:12:52;100842.28;;;4.68;100.00
56928;BME280;60850;52.502;13.426;2023-12-14T08:15:19;100844.03;;;4.57;100.00
56928;BME280;60850;52.502;13.426;2023-12-14T08:17:46;100846.72;;;4.45;100.00
56928;BME280;60850;52.502;13.426;2023-12-14T08:20:12;100851.97;;;4.09;100.00
56928;BME280;60850;52.502;13.426;2023-12-14T08:22:40;100862.50;;;4.05;100.00
56928;BME280;60850;52.502;13.426;2023-12-14T08:25:12;100865.81;;;3.49;100.00
56928;BME280;60850;52.502;13.426;2023-12-14T08:27:40;100869.28;;;3.33;100.00
56928;BME280;60850;52.502;13.426;2023-12-14T08:30:08;100864.84;;;3.30;100.00
56928;BME280;60850;52.502;13.426;2023-12-14T08:32:35;100873.63;;;3.29;100.00
56928;BME280;60850;52.502;13.426;2023-12-14T08:35:02;100890.34;;;3.36;100.00
56928;BME280;60850;52.502;13.426;2023-12-14T08:37:30;100890.25;;;3.14;100.00
56928;BME280;60850;52.502;13.426;2023-12-14T08:39:57;100894.66;;;3.20;100.00
56928;BME280;60850;52.502;13.426;2023-12-14T08:42:25;100892.88;;;3.13;100.00
56928;BME280;60850;52.502;13.426;2023-12-14T08:44:52;100899.91;;;3.12;100.00
56928;BME280;60850;52.502;13.426;2023-12-14T08:47:19;100907.84;;;3.23;100.00
56928;BME280;60850;52.502;13.426;2023-12-14T08:49:46;100905.22;;;3.23;100.00
56928;BME280;60850;52.502;13.426;2023-12-14T08:52:13;100911.34;;;3.23;100.00
56928;BME280;60850;52.502;13.426;2023-12-14T08:54:40;100917.50;;;3.19;100.00
56928;BME280;60850;52.502;13.426;2023-12-14T08:57:09;100926.22;;;3.11;100.00
56928;BME280;60850;52.502;13.426;2023-12-14T08:59:37;100937.72;;;3.23;100.00
56928;BME280;60850;52.502;13.426;2023-12-14T09:02:04;100935.94;;;3.19;100.00
56928;BME280;60850;52.502;13.426;2023-12-14T09:04:31;100933.25;;;3.13;100.00
56928;BME280;60850;52.502;13.426;2023-12-14T09:07:01;100936.88;;;3.26;100.00
56928;BME280;60850;52.502;13.426;2023-12-14T09:09:30;100940.38;;;3.28;100.00
56928;BME280;60850;52.502;13.426;2023-12-14T09:11:57;100943.06;;;3.33;100.00
56928;BME280;60850;52.502;13.426;2023-12-14T09:14:25;100941.31;;;3.36;100.00
56928;BME280;60850;52.502;13.426;2023-12-14T09:16:53;100948.34;;;3.37;100.00
56928;BME280;60850;52.502;13.426;2023-12-14T09:19:20;100962.38;;;3.35;100.00
56928;BME280;60850;52.502;13.426;2023-12-14T09:21:47;100961.53;;;3.39;100.00
56928;BME280;60850;52.502;13.426;2023-12-14T09:24:14;100963.22;;;3.26;100.00
56928;BME280;60850;52.502;13.426;2023-12-14T09:26:41;100965.91;;;3.37;100.00
56928;BME280;60850;52.502;13.426;2023-12-14T09:29:08;100967.69;;;3.41;100.00
56928;BME280;60850;52.502;13.426;2023-12-14T09:31:35;100970.34;;;3.45;100.00
56928;BME280;60850;52.502;13.426;2023-12-14T09:34:03;100975.69;;;3.54;100.00
56928;BME280;60850;52.502;13.426;2023-12-14T09:36:31;100986.19;;;3.48;100.00
56928;BME280;60850;52.502;13.426;2023-12-14T09:38:58;100980.88;;;3.39;100.00
56928;BME280;60850;52.502;13.426;2023-12-14T09:41:25;100984.38;;;3.44;100.00
56928;BME280;60850;52.502;13.426;2023-12-14T09:43:52;100981.84;;;3.55;100.00
56928;BME280;60850;52.502;13.426;2023-12-14T09:46:21;100995.91;;;3.55;100.00
56928;BME280;60850;52.502;13.426;2023-12-14T09:48:50;101011.63;;;3.42;100.00
56928;BME280;60850;52.502;13.426;2023-12-14T09:51:18;101001.91;;;3.36;100.00
56928;BME280;60850;52.502;13.426;2023-12-14T09:53:45;101009.00;;;3.42;100.00
56928;BME280;60850;52.502;13.426;2023-12-14T09:56:13;101020.28;;;3.25;100.00
56928;BME280;60850;52.502;13.426;2023-12-14T09:58:40;101009.81;;;3.36;100.00
56928;BME280;60850;52.502;13.426;2023-12-14T10:01:21;101002.00;;;3.50;100.00
56928;BME280;60850;52.502;13.426;2023-12-14T10:03:49;101009.81;;;3.32;100.00
56928;BME280;60850;52.502;13.426;2023-12-14T10:06:19;101001.16;;;3.54;100.00
56928;BME280;60850;52.502;13.426;2023-12-14T10:08:54;101009.03;;;3.51;100.00
56928;BME280;60850;52.502;13.426;2023-12-14T10:11:21;101012.63;;;3.61;100.00
56928;BME280;60850;52.502;13.426;2023-12-14T10:13:48;101013.41;;;3.46;100.00
56928;BME280;60850;52.502;13.426;2023-12-14T10:16:27;101018.69;;;3.47;100.00
56928;BME280;60850;52.502;13.426;2023-12-14T10:18:55;101025.78;;;3.53;100.00
56928;BME280;60850;52.502;13.426;2023-12-14T10:21:24;101024.97;;;3.71;100.00
56928;BME280;60850;52.502;13.426;2023-12-14T10:23:51;101017.13;;;3.75;100.00
56928;BME280;60850;52.502;13.426;2023-12-14T10:26:18;101025.81;;;3.64;100.00
56928;BME280;60850;52.502;13.426;2023-12-14T10:28:46;101027.56;;;3.60;100.00
56928;BME280;60850;52.502;13.426;2023-12-14T10:31:13;101031.97;;;3.66;100.00
56928;BME280;60850;52.502;13.426;2023-12-14T10:33:41;101032.78;;;3.52;100.00
56928;BME280;60850;52.502;13.426;2023-12-14T10:36:08;101041.50;;;3.41;100.00
56928;BME280;60850;52.502;13.426;2023-12-14T10:38:38;101043.25;;;3.39;100.00
56928;BME280;60850;52.502;13.426;2023-12-14T10:41:06;101047.69;;;3.49;100.00
56928;BME280;60850;52.502;13.426;2023-12-14T10:43:36;101051.16;;;3.40;100.00
56928;BME280;60850;52.502;13.426;2023-12-14T10:46:05;101049.50;;;3.54;100.00
56928;BME280;60850;52.502;13.426;2023-12-14T10:48:35;101061.81;;;3.58;100.00
56928;BME280;60850;52.502;13.426;2023-12-14T10:51:02;101063.56;;;3.53;100.00
56928;BME280;60850;52.502;13.426;2023-12-14T10:53:31;101060.88;;;3.50;100.00
56928;BME280;60850;52.502;13.426;2023-12-14T10:56:01;101067.84;;;3.44;100.00
56928;BME280;60850;52.502;13.426;2023-12-14T10:58:45;101063.47;;;3.44;100.00
56928;BME280;60850;52.502;13.426;2023-12-14T11:01:14;101069.59;;;3.42;100.00
56928;BME280;60850;52.502;13.426;2023-12-14T11:03:42;101076.78;;;3.60;100.00
56928;BME280;60850;52.502;13.426;2023-12-14T11:06:20;101076.78;;;3.64;100.00
56928;BME280;60850;52.502;13.426;2023-12-14T11:08:48;101081.22;;;3.67;100.00
56928;BME280;60850;52.502;13.426;2023-12-14T11:11:16;101071.50;;;3.61;100.00
56928;BME280;60850;52.502;13.426;2023-12-14T11:13:46;101068.00;;;3.62;100.00
56928;BME280;60850;52.502;13.426;2023-12-14T11:16:15;101076.72;;;3.55;100.00
56928;BME280;60850;52.502;13.426;2023-12-14T11:18:42;101084.59;;;3.49;100.00
56928;BME280;60850;52.502;13.426;2023-12-14T11:21:18;101083.78;;;3.56;100.00
56928;BME280;60850;52.502;13.426;2023-12-14T11:23:45;101078.50;;;3.59;100.00
56928;BME280;60850;52.502;13.426;2023-12-14T11:26:21;101084.75;;;3.73;100.00
56928;BME280;60850;52.502;13.426;2023-12-14T11:28:54;101085.63;;;3.72;100.00
56928;BME280;60850;52.502;13.426;2023-12-14T11:31:21;101089.19;;;3.79;100.00
56928;BME280;60850;52.502;13.426;2023-12-14T11:33:48;101086.50;;;3.73;100.00
56928;BME280;60850;52.502;13.426;2023-12-14T11:36:16;101097.09;;;3.80;100.00
56928;BME280;60850;52.502;13.426;2023-12-14T11:38:43;101091.88;;;3.82;100.00
56928;BME280;60850;52.502;13.426;2023-12-14T11:41:10;101108.63;;;3.89;100.00
56928;BME280;60850;52.502;13.426;2023-12-14T11:43:43;101105.94;;;3.84;100.00
56928;BME280;60850;52.502;13.426;2023-12-14T11:46:10;101106.81;;;3.81;100.00
56928;BME280;60850;52.502;13.426;2023-12-14T11:48:37;101109.50;;;3.92;100.00
56928;BME280;60850;52.502;13.426;2023-12-14T11:51:05;101112.97;;;3.85;100.00
56928;BME280;60850;52.502;13.426;2023-12-14T11:53:32;101119.13;;;3.84;100.00
56928;BME280;60850;52.502;13.426;2023-12-14T11:55:59;101127.88;;;3.78;100.00
56928;BME280;60850;52.502;13.426;2023-12-14T11:58:28;101126.16;;;3.86;100.00
56928;BME280;60850;52.502;13.426;2023-12-14T12:00:56;101135.88;;;3.94;100.00
56928;BME280;60850;52.502;13.426;2023-12-14T12:03:37;101141.09;;;3.84;100.00
56928;BME280;60850;52.502;13.426;2023-12-14T12:06:06;101136.59;;;3.70;100.00
56928;BME280;60850;52.502;13.426;2023-12-14T12:08:40;101140.13;;;3.73;100.00
56928;BME280;60850;52.502;13.426;2023-12-14T12:11:07;101140.22;;;3.82;100.00
56928;BME280;60850;52.502;13.426;2023-12-14T12:13:34;101149.00;;;3.81;100.00
56928;BME280;60850;52.502;13.426;2023-12-14T12:16:04;101148.09;;;3.79;100.00
56928;BME280;60850;52.502;13.426;2023-12-14T12:18:31;101150.66;;;3.70;100.00
56928;BME280;60850;52.502;13.426;2023-12-14T12:20:58;101155.13;;;3.79;100.00
56928;BME280;60850;52.502;13.426;2023-12-14T12:23:29;101160.38;;;3.77;100.00
56928;BME280;60850;52.502;13.426;2023-12-14T12:25:56;101158.63;;;3.79;100.00
56928;BME280;60850;52.502;13.426;2023-12-14T12:28:23;101149.00;;;3.81;100.00
56928;BME280;60850;52.502;13.426;2023-12-14T12:30:50;101159.50;;;3.78;100.00
56928;BME280;60850;52.502;13.426;2023-12-14T12:33:18;101156.88;;;3.80;100.00
56928;BME280;60850;52.502;13.426;2023-12-14T12:35:46;101156.81;;;3.72;100.00
56928;BME280;60850;52.502;13.426;2023-12-14T12:38:13;101166.47;;;3.67;100.00
56928;BME280;60850;52.502;13.426;2023-12-14T12:40:42;101165.69;;;3.80;100.00
56928;BME280;60850;52.502;13.426;2023-12-14T12:43:09;101178.84;;;3.80;100.00